Pueblo, CO

3:26 AM MDT on April 25, 2017 (GMT -0600)
Belmont - Boomer Weather | | Change Station

Elev 4869 ft 38.30 °N, 104.58 °W | Updated 14 seconds ago

Clear
Clear
50.5 °F
Feels Like 50.5 °F
N
17.0
Wind Variable Wind from NW
Gusts 28.0 mph

Today
High -- | Low -- °F
--% Chance of Precip.
Yesterday
High -- | Low -- °F
Precip. -- in
Pressure 29.34 in
Visibility 10.0 miles
Clouds Clear
Dew Point 38 °F
Humidity 63%
Rainfall 0.00 in
Snow Depth Not available.
6:08 AM 7:44 PM
Waning Crescent, 2% visible
METAR KPUB 250853Z AUTO 36006KT 10SM CLR 11/04 A2949 RMK AO2 SLP933 T01060039 53003
Pressure 29.34 in
Visibility 10.0 miles
Clouds Clear
Dew Point 38 °F
Humidity 63%
Rainfall 0.00 in
Snow Depth Not available.
6:08 AM 7:44 PM
Waning Crescent, 2% visible
METAR KPUB 250853Z AUTO 36006KT 10SM CLR 11/04 A2949 RMK AO2 SLP933 T01060039 53003

Get Severe Weather Alerts

Thanks for signing up!

Be on the lookout for a verification email in your inbox.

You'll start receiving the daily forecast at 8 AM.

×

10-Day Weather Forecast

Almanac

Astronomy

Apr. 25, 2017 Rise Set
Actual Time
Civil Twilight
Nautical Twilight
Astronomical Twilight
Moon
Length of Visible Light
Length of Day
Tomorrow will be .
, % of the Moon is Illuminated

Today's Extremes

State Highs State Lows

Community

WunderPhotos

WunderBlog® & News

Nearby

Air Quality

  Air Quality AQ Index Pollutant
Not available.

Snow Depth

Station Depth Elevation

Earthquake Activity

City Distance Mag. Time & Date
Minimum magnitude displayed is 2.5.

Coastal Water Temperatures

Place Temperature

Stations

Nearby Weather Stations

Station Location Temp. Windchill Dew Point Humidity Wind Precip. Elev Updated Type
                   

Watches & Warnings

There are currently no watches in effect.